Latest Weather Observations for Cape Sorell

IDT60801

Issued at 3:31 pm EST Tuesday 31 May 2016 (issued every 30 minutes, with the page automatically refreshed every 10 minutes)

About weather observations | Map of weather stations | Latest weather observations for TAS | Other Formats
Station Details ID: 097000 Name: CAPE SORELL Lat: -42.20 Lon: 145.17 Height: 19.3 m
Data from the previous 72 hours. | See also: Recent months at Cape Sorell
Date/Time
EST
Temp
°C
App
Temp
°C
Dew
Point
Rel
Hum
%
Delta-T
°C
Wind Press
QNH
hPa
Press
MSL
hPa
Rain
since 9 am
mm
Dir
 
Spd
km/h
Gust
km/h
Spd
kts
Gust
kts
31/03:30pm 13.4 10.5 6.7 64 3.2 ESE 11 17 6 9 1029.8 1029.8 0.0
31/03:00pm 14.1 11.0 7.2 63 3.3 ESE 13 17 7 9 1029.9 1029.9 0.0
31/02:30pm 13.9 11.5 7.0 63 3.4 ESE 9 13 5 7 1029.9 1029.9 0.0
31/02:00pm 14.4 11.7 7.5 63 3.4 ESE 11 15 6 8 1030.2 1030.2 0.0
31/01:30pm 14.4 12.1 7.5 63 3.4 ESE 9 13 5 7 1030.3 1030.3 0.0
31/01:00pm 13.7 10.9 7.0 64 3.2 ESE 11 15 6 8 1030.6 1030.6 0.0
31/12:30pm 12.9 9.2 6.5 65 3.1 E 15 19 8 10 1030.8 1030.8 0.0
31/12:00pm 12.9 9.3 6.9 67 2.9 E 15 19 8 10 1031.2 1031.2 0.0
31/11:30am 11.8 7.7 6.3 69 2.6 E 17 22 9 12 1031.4 1031.4 0.0
31/11:00am 11.1 6.9 5.8 70 2.4 E 17 22 9 12 1031.9 1031.9 0.0
31/10:30am 10.4 6.3 6.0 74 2.0 E 17 22 9 12 1032.1 1032.1 0.0
31/10:00am 9.4 4.6 5.8 78 1.6 E 20 24 11 13 1032.0 1032.0 0.0
31/09:30am 8.6 3.9 5.9 83 1.2 E 20 26 11 14 1032.1 1032.1 0.0
31/09:00am 7.8 3.0 5.6 86 1.0 E 20 26 11 14 1032.1 1032.1 0.0
31/08:30am 7.2 2.0 5.5 89 0.8 E 22 26 12 14 1031.9 1031.9 0.0
31/08:00am 6.6 1.7 5.1 90 0.7 E 20 24 11 13 1031.6 1031.6 0.0
31/07:30am 6.3 1.0 4.8 90 0.7 E 22 26 12 14 1031.3 1031.3 0.0
31/07:00am 6.3 1.3 4.8 90 0.6 E 20 24 11 13 1031.2 1031.2 0.0
31/06:30am 6.3 1.0 4.8 90 0.7 E 22 26 12 14 1031.0 1031.0 0.0
31/06:00am 6.3 1.0 4.8 90 0.6 E 22 28 12 15 1030.7 1030.7 0.0
31/05:30am 6.3 1.3 4.8 90 0.7 E 20 26 11 14 1030.6 1030.6 0.0
31/05:00am 6.4 1.5 4.9 90 0.6 E 20 24 11 13 1030.6 1030.6 0.0
31/04:30am 6.4 1.1 4.9 90 0.7 E 22 26 12 14 1030.4 1030.4 0.0
31/04:00am 6.5 1.5 4.8 89 0.7 E 20 24 11 13 1030.2 1030.2 0.0
31/03:30am 6.9 1.6 5.2 89 0.7 E 22 26 12 14 1030.2 1030.2 0.0
31/03:00am 6.9 2.0 5.2 89 0.7 E 20 24 11 13 1030.3 1030.3 0.0
31/02:30am 7.0 2.1 5.3 89 0.8 E 20 24 11 13 1030.4 1030.4 0.0
31/02:00am 6.8 1.9 5.1 89 0.7 E 20 24 11 13 1030.3 1030.3 0.0
31/01:30am 6.9 2.0 5.2 89 0.7 E 20 24 11 13 1030.2 1030.2 0.0
31/01:00am 6.4 2.0 4.7 89 0.7 E 17 22 9 12 1030.3 1030.3 0.0
31/12:30am 6.5 2.5 4.7 88 0.8 ESE 15 19 8 10 1030.4 1030.4 0.0
31/12:00am 6.7 2.3 4.7 87 0.9 E 17 20 9 11 1030.6 1030.6 0.0
 
Date/Time
EST
Temp
°C
App
Temp
°C
Dew
Point
Rel
Hum
%
Delta-T
°C
Wind Press
QNH
hPa
Press
MSL
hPa
Rain
since 9 am
mm
Dir
 
Spd
km/h
Gust
km/h
Spd
kts
Gust
kts
30/11:30pm 6.8 2.0 4.6 86 1.0 ESE 19 22 10 12 1030.4 1030.4 0.0
30/11:00pm 6.9 2.1 4.6 85 1.0 E 19 24 10 13 1030.3 1030.3 0.0
30/10:30pm 7.1 2.1 4.4 83 1.2 ESE 20 24 11 13 1030.2 1030.2 0.0
30/10:00pm 7.2 2.1 4.2 81 1.3 ESE 20 24 11 13 1030.2 1030.2 0.0
30/09:30pm 7.4 2.3 4.2 80 1.4 ESE 20 24 11 13 1030.0 1030.0 0.0
30/09:00pm 7.4 2.3 4.2 80 1.4 ESE 20 24 11 13 1029.8 1029.8 0.0
30/08:30pm 7.6 2.5 4.2 79 1.5 ESE 20 24 11 13 1029.6 1029.6 0.0
30/08:00pm 7.7 2.6 4.3 79 1.5 ESE 20 22 11 12 1029.4 1029.4 0.0
30/07:30pm 7.7 3.2 4.1 78 1.6 ESE 17 20 9 11 1029.3 1029.3 0.0
30/07:00pm 8.0 3.1 4.2 77 1.6 ESE 19 22 10 12 1029.1 1029.1 0.0
30/06:30pm 7.3 3.4 3.5 77 1.6 SE 13 17 7 9 1028.8 1028.8 0.0
30/06:00pm 7.6 4.1 3.5 75 1.7 SE 11 13 6 7 1028.5 1028.5 0.0
30/05:30pm 7.7 3.8 3.4 74 1.8 SE 13 13 7 7 1028.2 1028.2 0.0
30/05:00pm 8.3 4.8 3.6 72 2.0 SE 11 15 6 8 1028.0 1028.0 0.0
30/04:30pm 9.2 5.8 4.0 70 2.3 SE 11 15 6 8 1027.8 1027.8 0.0
30/04:00pm 10.2 6.9 4.6 68 2.5 ESE 11 17 6 9 1027.7 1027.7 0.0
30/03:30pm 10.7 7.0 4.2 64 2.9 ESE 13 19 7 10 1027.5 1027.5 0.0
30/03:00pm 11.2 7.0 3.7 60 3.3 ESE 15 19 8 10 1027.3 1027.3 0.0
30/02:30pm 11.6 7.5 4.6 62 3.2 ESE 15 20 8 11 1027.3 1027.3 0.0
30/02:00pm 11.9 8.1 3.9 58 3.6 SE 13 19 7 10 1027.3 1027.3 0.0
30/01:30pm 11.8 7.6 3.8 58 3.6 SE 15 20 8 11 1027.4 1027.4 0.0
30/01:00pm 11.8 8.6 5.0 63 3.1 ESE 11 15 6 8 1027.5 1027.5 0.0
30/12:30pm 11.8 8.7 5.4 65 3.0 ESE 11 17 6 9 1027.6 1027.6 0.0
30/12:00pm 11.1 7.8 4.8 65 2.8 E 11 17 6 9 1027.6 1027.6 0.0
30/11:30am 10.7 7.2 5.3 69 2.5 E 13 17 7 9 1027.8 1027.8 0.0
30/11:00am 10.4 6.4 5.0 69 2.4 ENE 15 20 8 11 1028.0 1028.0 0.0
30/10:30am 10.1 5.7 4.7 69 2.4 ENE 17 20 9 11 1027.9 1027.9 0.0
30/10:00am 9.7 5.7 4.9 72 2.1 E 15 20 8 11 1027.5 1027.5 0.0
30/09:30am 8.9 4.5 4.7 75 1.9 E 17 19 9 10 1027.2 1027.2 0.0
30/09:00am 8.5 5.1 5.8 83 1.2 ENE 13 17 7 9 1027.1 1027.1 0.2
30/08:30am 8.0 4.3 6.1 88 0.9 E 15 20 8 11 1026.8 1026.8 0.2
30/08:00am 7.5 3.7 6.0 90 0.7 E 15 20 8 11 1026.4 1026.4 0.2
30/07:30am 7.6 3.4 5.9 89 0.8 E 17 20 9 11 1026.0 1026.0 0.2
30/07:00am 7.8 4.0 5.9 88 0.9 E 15 20 8 11 1025.7 1025.7 0.2
30/06:30am 8.1 4.4 6.1 87 0.9 E 15 17 8 9 1025.5 1025.5 0.2
30/06:00am 8.3 5.0 6.3 87 0.9 E 13 17 7 9 1025.2 1025.2 0.2
30/05:30am 8.2 4.9 6.3 88 0.9 E 13 17 7 9 1024.8 1024.8 0.2
30/05:00am 8.1 4.8 6.2 88 0.9 E 13 17 7 9 1024.6 1024.6 0.2
30/04:30am 8.4 5.2 6.7 89 0.8 E 13 19 7 10 1024.5 1024.5 0.2
30/04:00am 8.3 5.0 6.4 88 0.9 E 13 17 7 9 1024.3 1024.3 0.2
30/03:30am 8.3 5.0 6.3 87 0.9 E 13 15 7 8 1024.2 1024.2 0.2
30/03:00am 8.2 4.4 5.8 85 1.1 E 15 17 8 9 1024.0 1024.0 0.2
30/02:30am 8.5 5.0 5.6 82 1.3 ESE 13 17 7 9 1023.8 1023.8 0.2
30/02:00am 8.9 5.7 5.3 78 1.6 ESE 11 13 6 7 1023.7 1023.7 0.2
30/01:30am 9.0 6.1 4.6 74 2.0 ESE 9 11 5 6 1023.7 1023.7 0.2
30/01:00am 8.9 6.2 5.6 80 1.5 E 9 13 5 7 1023.5 1023.5 0.2
30/12:30am 9.2 7.0 5.4 77 1.7 SE 6 11 3 6 1023.3 1023.3 0.2
30/12:00am 9.2 6.6 5.9 80 1.5 ESE 9 13 5 7 1023.2 1023.2 0.2
 
Date/Time
EST
Temp
°C
App
Temp
°C
Dew
Point
Rel
Hum
%
Delta-T
°C
Wind Press
QNH
hPa
Press
MSL
hPa
Rain
since 9 am
mm
Dir
 
Spd
km/h
Gust
km/h
Spd
kts
Gust
kts
29/11:30pm 9.1 5.8 6.4 83 1.2 E 13 15 7 8 1022.9 1022.9 0.2
29/11:00pm 9.1 5.8 6.4 83 1.2 E 13 15 7 8 1022.6 1022.6 0.2
29/10:30pm 9.2 6.4 6.8 85 1.1 E 11 15 6 8 1022.4 1022.4 0.2
29/10:00pm 9.4 6.6 7.0 85 1.1 E 11 13 6 7 1022.3 1022.3 0.2
29/09:30pm 9.6 6.7 6.7 82 1.4 ESE 11 13 6 7 1022.2 1022.2 0.2
29/09:00pm 9.5 6.5 6.0 79 1.6 E 11 15 6 8 1021.9 1021.9 0.2
29/08:30pm 9.3 6.5 5.3 76 1.8 SE 9 13 5 7 1021.8 1021.8 0.2
29/08:00pm 9.3 6.7 4.3 71 2.2 SE 7 13 4 7 1021.6 1021.6 0.2
29/07:30pm 10.6 6.2 4.9 68 2.6 SSW 17 22 9 12 1021.2 1021.2 0.2
29/07:00pm 10.5 5.7 4.9 68 2.5 SSW 19 24 10 13 1020.9 1020.9 0.2
29/06:30pm 10.7 5.8 5.0 68 2.6 SSW 20 26 11 14 1020.5 1020.5 0.2
29/06:00pm 10.6 5.8 5.6 71 2.3 SW 20 26 11 14 1020.1 1020.1 0.2
29/05:30pm 10.7 5.9 5.5 70 2.4 SSW 20 26 11 14 1019.9 1019.9 0.2
29/05:00pm 10.9 4.7 6.1 72 2.2 SSW 28 33 15 18 1019.5 1019.5 0.2
29/04:30pm 11.2 5.0 6.1 71 2.4 SSW 28 33 15 18 1019.2 1019.2 0.2
29/04:00pm 11.3 5.1 6.2 71 2.4 SSW 28 33 15 18 1019.0 1019.0 0.2
29/03:30pm 11.5 5.4 6.8 73 2.2 SSW 28 33 15 18 1018.8 1018.8 0.2
29/03:00pm 11.6 5.5 6.7 72 2.3 SSW 28 33 15 18 1018.4 1018.4 0.2
29/02:30pm 11.8 5.4 7.1 73 2.3 SW 30 33 16 18 1018.3 1018.3 0.2
29/02:00pm 11.9 5.6 7.2 73 2.3 SW 30 35 16 19 1018.0 1018.0 0.2
29/01:30pm 11.9 5.5 7.0 72 2.3 SW 30 35 16 19 1017.8 1017.8 0.2
29/01:00pm 11.8 5.7 6.5 70 2.5 SSW 28 32 15 17 1017.6 1017.6 0.2
29/12:30pm 12.1 6.1 7.0 71 2.4 SW 28 33 15 18 1017.5 1017.5 0.2
29/12:00pm 11.5 5.4 6.6 72 2.3 SSW 28 39 15 21 1017.6 1017.6 0.2
29/11:30am 10.9 7.2 8.0 82 1.4 S 17 32 9 17 1017.8 1017.8 0.2
29/11:00am 10.4 7.4 7.5 82 1.4 ESE 13 28 7 15 1017.9 1017.9 0.0
29/10:30am 11.3 6.3 8.0 80 1.6 SSW 24 35 13 19 1017.4 1017.4 0.0
29/10:00am 10.8 5.2 7.3 79 1.7 S 26 37 14 20 1017.4 1017.4 0.0
29/09:30am 10.4 7.3 7.1 80 1.6 SE 13 20 7 11 1017.2 1017.2 0.0
29/09:00am 11.4 5.5 7.7 78 1.8 SSW 28 39 15 21 1016.5 1016.5 21.4
29/08:30am 10.5 2.9 7.7 83 1.3 S 37 48 20 26 1016.1 1016.1 21.4
29/08:00am 10.7 4.0 8.1 84 1.3 S 33 44 18 24 1016.0 1016.0 21.4
29/07:30am 9.9 5.2 7.8 87 1.0 S 22 32 12 17 1015.6 1015.7 21.4
29/07:07am 10.7 5.0 8.5 86 1.1 S 28 50 15 27 1015.1 1015.2 21.4
29/07:00am 10.1 3.5 7.9 86 1.1 S 32 39 17 21 1015.2 1015.3 21.4
29/06:45am 10.8 4.2 8.6 86 1.1 S 33 43 18 23 1014.9 1015.0 21.4
29/06:30am 10.7 3.4 8.8 88 0.9 SW 37 46 20 25 1014.7 1014.8 21.4
29/06:00am 10.4 2.2 8.2 86 1.1 SSW 41 50 22 27 1014.4 1014.5 21.4
29/05:30am 10.4 2.2 8.3 87 1.0 SSW 41 54 22 29 1014.1 1014.2 21.2
29/05:00am 10.4 3.4 8.3 87 1.0 SSW 35 43 19 23 1013.7 1013.8 21.2
29/04:30am 10.5 1.8 8.3 86 1.1 S 44 54 24 29 1013.6 1013.7 21.0
29/04:00am 10.4 2.3 8.5 88 0.9 SSW 41 54 22 29 1013.4 1013.5 21.0
29/03:31am 9.9 3.2 8.0 88 0.9 S 33 52 18 28 1013.4 1013.5 21.0
29/03:30am 9.9 2.8 8.0 88 0.9 S 35 52 19 28 1013.4 1013.5 21.0
29/03:00am 10.4 3.8 8.7 89 0.8 SSW 33 48 18 26 1013.1 1013.2 20.8
29/02:48am 10.7 4.0 8.3 85 1.2 SSW 33 54 18 29 1013.1 1013.2 19.8
29/02:30am 10.9 4.0 8.7 86 1.1 S 35 46 19 25 1012.8 1012.9 19.8
29/02:08am 10.7 3.8 8.8 88 0.9 SSW 35 46 19 25 1012.6 1012.7 19.8
29/02:00am 9.8 7.2 7.9 88 0.9 SSE 11 30 6 16 1013.0 1013.1 19.8
29/01:30am 11.0 5.5 9.3 89 0.9 SSW 28 46 15 25 1012.4 1012.5 19.8
29/01:19am 10.1 3.7 8.4 89 0.8 SSW 32 52 17 28 1012.6 1012.7 19.6
29/01:00am 10.9 3.3 9.2 89 0.8 SSW 39 48 21 26 1012.2 1012.3 19.6
29/12:30am 10.6 4.7 9.0 90 0.8 SSW 30 46 16 25 1012.2 1012.3 19.4
29/12:28am 10.5 6.1 8.9 90 0.8 S 22 44 12 24 1012.3 1012.4 19.4
29/12:03am 10.6 3.7 9.0 90 0.8 SSW 35 48 19 26 1012.5 1012.6 19.4
29/12:00am 11.0 3.5 9.6 91 0.7 SSW 39 48 21 26 1012.1 1012.2 19.4
 
Date/Time
EST
Temp
°C
App
Temp
°C
Dew
Point
Rel
Hum
%
Delta-T
°C
Wind Press
QNH
hPa
Press
MSL
hPa
Rain
since 9 am
mm
Dir
 
Spd
km/h
Gust
km/h
Spd
kts
Gust
kts
28/11:30pm 10.2 6.4 9.1 93 0.5 S 19 32 10 17 1012.4 1012.5 19.4
28/11:00pm 8.6 5.9 7.4 92 0.6 SE 11 17 6 9 1012.3 1012.4 17.8
28/10:30pm 9.2 6.3 8.0 92 0.6 SSE 13 20 7 11 1012.3 1012.4 17.8
28/10:00pm 9.5 5.9 8.3 92 0.6 SSE 17 22 9 12 1012.2 1012.3 17.8
28/09:30pm 9.8 6.6 8.6 92 0.6 S 15 20 8 11 1012.2 1012.3 17.0
28/09:00pm 9.6 6.8 8.4 92 0.6 SSE 13 19 7 10 1012.0 1012.1 15.6
28/08:30pm 9.7 6.1 8.5 92 0.6 SSE 17 22 9 12 1011.7 1011.8 15.4
28/08:00pm 10.3 5.5 8.9 91 0.7 SSW 24 30 13 16 1011.3 1011.4 12.4
28/07:30pm 10.6 5.8 9.0 90 0.8 S 24 32 13 17 1011.0 1011.1 10.6
28/07:00pm 9.8 7.7 8.2 90 0.8 SSE 9 15 5 8 1010.6 1010.7 10.0
28/06:30pm 9.8 6.8 7.9 88 0.9 ESE 13 19 7 10 1010.4 1010.4 9.0
28/06:07pm 11.2 4.0 9.1 87 1.0 S 37 48 20 26 1009.9 1009.9 8.2
28/06:00pm 11.6 4.2 9.7 88 1.0 SSW 39 44 21 24 1009.3 1009.3 8.2
28/05:30pm 11.2 4.1 9.5 89 0.9 SSW 37 43 20 23 1008.9 1008.9 8.2
28/05:00pm 11.2 3.7 9.3 88 1.0 SSW 39 46 21 25 1008.7 1008.7 8.0
28/04:30pm 11.2 4.8 9.3 88 1.0 SSW 33 39 18 21 1008.6 1008.6 8.0
28/04:29pm 11.2 4.8 9.3 88 1.0 SSW 33 39 18 21 1008.6 1008.6 8.0
28/04:00pm 10.6 3.2 8.2 85 1.2 SW 37 48 20 26 1008.3 1008.3 7.8

Other Formats:

Comma delimited format used in spreadsheet applications
http://www.bom.gov.au/fwo/IDT60801/IDT60801.94974.axf

JavaScript Object Notation format (JSON) in row-major order
http://www.bom.gov.au/fwo/IDT60801/IDT60801.94974.json